createdAt,value
2023-04-17T00:00:39.210Z,41.85
2023-04-17T00:05:46.497Z,42.96
2023-04-17T00:11:00.185Z,43.56
2023-04-17T00:16:10.874Z,44.33
2023-04-17T00:21:14.479Z,45.11
2023-04-17T00:26:17.357Z,46.66
2023-04-17T00:31:20.772Z,47.20
2023-04-17T00:36:23.671Z,47.43
2023-04-17T00:41:26.593Z,47.36
2023-04-17T00:46:29.862Z,46.57
2023-04-17T00:51:33.485Z,46.53
2023-04-17T00:56:36.598Z,46.41
2023-04-17T01:01:39.522Z,46.69
2023-04-17T01:06:42.716Z,46.50
2023-04-17T01:11:46.737Z,46.80
2023-04-17T01:16:50.718Z,46.85
2023-04-17T01:21:53.952Z,47.00
2023-04-17T01:26:58.093Z,47.71
2023-04-17T01:32:02.008Z,47.60
2023-04-17T01:37:05.555Z,46.98
2023-04-17T01:42:08.483Z,47.82
2023-04-17T01:47:11.429Z,46.96
2023-04-17T01:52:14.314Z,44.65
2023-04-17T01:57:35.642Z,41.61
2023-04-17T02:02:38.890Z,44.48
2023-04-17T02:07:42.119Z,43.62
2023-04-17T02:12:44.982Z,43.86
2023-04-17T02:17:48.071Z,43.07
2023-04-17T02:22:51.099Z,42.54
2023-04-17T02:27:55.124Z,42.33
2023-04-17T02:32:58.654Z,43.04
2023-04-17T02:38:01.655Z,43.11
2023-04-17T02:43:04.804Z,43.03
2023-04-17T02:48:07.901Z,42.86
2023-04-17T02:53:11.948Z,43.68
2023-04-17T02:58:15.086Z,43.99
2023-04-17T03:03:18.335Z,44.64
2023-04-17T03:08:40.346Z,44.44
2023-04-17T03:13:43.641Z,44.45
2023-04-17T03:18:46.454Z,45.00
2023-04-17T03:23:49.304Z,44.65
2023-04-17T03:28:53.383Z,43.00
2023-04-17T03:33:56.555Z,42.12
2023-04-17T03:39:00.678Z,41.89
2023-04-17T03:44:03.814Z,41.90
2023-04-17T03:49:07.168Z,42.41
2023-04-17T03:54:29.376Z,42.18
2023-04-17T03:59:33.996Z,42.18
2023-04-17T04:04:37.220Z,41.99
2023-04-17T04:09:59.079Z,41.49
2023-04-17T04:15:03.381Z,40.24
2023-04-17T04:20:09.332Z,39.79
2023-04-17T04:25:12.584Z,39.00
2023-04-17T04:30:25.663Z,38.20
2023-04-17T04:35:35.695Z,37.27
2023-04-17T04:40:38.756Z,34.74
2023-04-17T04:45:44.539Z,33.36
2023-04-17T04:50:47.786Z,32.85
2023-04-17T04:55:51.073Z,32.70
2023-04-17T05:00:54.260Z,32.66
2023-04-17T05:06:04.556Z,32.50
2023-04-17T05:11:15.902Z,32.78
2023-04-17T05:16:19.300Z,32.98
2023-04-17T05:21:22.362Z,32.72
2023-04-17T05:26:27.592Z,33.22
2023-04-17T05:31:30.891Z,32.78
2023-04-17T05:36:35.722Z,32.39
2023-04-17T05:41:40.398Z,31.51
2023-04-17T05:46:43.280Z,31.54
2023-04-17T05:51:47.553Z,30.96
2023-04-17T05:56:50.752Z,30.49
2023-04-17T06:01:53.862Z,30.05
2023-04-17T06:06:58.222Z,29.67
2023-04-17T06:12:01.568Z,29.66
2023-04-17T06:17:04.550Z,29.55
2023-04-17T06:22:07.541Z,29.33
2023-04-17T06:27:10.448Z,29.39
2023-04-17T06:32:13.476Z,28.66
2023-04-17T06:37:16.945Z,28.64
2023-04-17T06:42:20.788Z,27.94
2023-04-17T06:47:35.032Z,27.35
2023-04-17T06:52:38.508Z,27.12
2023-04-17T06:57:41.397Z,26.80
2023-04-17T07:02:44.668Z,26.82
2023-04-17T07:07:48.215Z,26.23
2023-04-17T07:12:51.603Z,26.10
2023-04-17T07:17:55.334Z,26.00
2023-04-17T07:22:58.269Z,26.07
2023-04-17T07:28:02.583Z,25.64
2023-04-17T07:33:06.920Z,25.53
2023-04-17T07:38:09.835Z,25.30
2023-04-17T07:43:12.807Z,25.07
2023-04-17T07:48:19.077Z,25.19
2023-04-17T07:53:22.524Z,24.73
2023-04-17T07:58:27.333Z,24.38
2023-04-17T08:03:32.058Z,24.20
2023-04-17T08:08:35.094Z,24.23
2023-04-17T08:13:56.970Z,24.75
2023-04-17T08:18:59.870Z,24.53
2023-04-17T08:24:02.772Z,24.21
2023-04-17T08:29:05.612Z,24.15
2023-04-17T08:34:27.479Z,23.76
2023-04-17T08:39:30.578Z,23.53
2023-04-17T08:44:33.621Z,23.65
2023-04-17T08:49:36.968Z,23.31
2023-04-17T08:54:39.866Z,23.28
2023-04-17T08:59:43.124Z,23.35
2023-04-17T09:04:47.330Z,22.91
2023-04-17T09:09:52.797Z,22.69
2023-04-17T09:14:56.131Z,22.82
2023-04-17T09:20:09.197Z,23.04
2023-04-17T09:25:17.805Z,22.70
2023-04-17T09:30:20.987Z,22.56
2023-04-17T09:35:26.278Z,22.81
2023-04-17T09:40:38.266Z,22.26
2023-04-17T09:45:42.925Z,22.62
2023-04-17T09:50:46.560Z,22.08
2023-04-17T09:55:53.353Z,21.83
2023-04-17T10:00:56.768Z,21.92
2023-04-17T10:06:00.805Z,21.95
2023-04-17T10:11:08.966Z,21.46
2023-04-17T10:16:12.258Z,20.92
2023-04-17T10:21:23.350Z,20.64
2023-04-17T10:26:26.308Z,20.77
2023-04-17T10:32:10.827Z,21.00
2023-04-17T10:37:16.989Z,21.05
2023-04-17T10:42:21.423Z,21.03
2023-04-17T10:47:31.611Z,21.12
2023-04-17T10:52:40.852Z,20.57
2023-04-17T10:57:53.853Z,20.57
2023-04-17T11:02:57.030Z,20.32
2023-04-17T11:08:00.352Z,20.38
2023-04-17T11:13:03.242Z,20.43
2023-04-17T11:18:06.565Z,20.28
2023-04-17T11:23:10.026Z,19.90
2023-04-17T11:28:13.363Z,19.73
2023-04-17T11:33:16.828Z,19.70
2023-04-17T11:38:23.949Z,19.30
2023-04-17T11:43:28.742Z,19.42
2023-04-17T11:48:50.805Z,19.04
2023-04-17T11:53:53.743Z,18.79
2023-04-17T11:59:30.849Z,18.69
2023-04-17T12:04:35.862Z,18.64
2023-04-17T12:09:38.979Z,18.00
2023-04-17T12:14:41.985Z,17.82
2023-04-17T12:19:45.538Z,17.08
2023-04-17T12:24:48.243Z,17.13
2023-04-17T12:29:51.212Z,17.29
2023-04-17T12:34:54.083Z,16.65
2023-04-17T12:39:56.904Z,16.12
2023-04-17T12:45:02.111Z,16.86
2023-04-17T12:50:07.104Z,16.79
2023-04-17T12:55:10.788Z,16.67
2023-04-17T13:00:14.196Z,15.83
2023-04-17T13:05:17.301Z,15.85
2023-04-17T13:10:20.182Z,15.77
2023-04-17T13:15:42.649Z,15.47
2023-04-17T13:20:45.858Z,16.36
2023-04-17T13:25:48.672Z,16.49
2023-04-17T13:30:52.990Z,16.90
2023-04-17T13:35:56.104Z,17.06
2023-04-17T13:40:59.026Z,17.52
2023-04-17T13:46:02.353Z,17.53
2023-04-17T13:51:08.334Z,17.54
2023-04-17T13:56:11.771Z,17.83
2023-04-17T14:01:14.760Z,18.19
2023-04-17T14:06:19.082Z,18.01
2023-04-17T14:11:23.093Z,18.35
2023-04-17T14:16:26.182Z,18.39
2023-04-17T14:21:29.360Z,18.79
2023-04-17T14:26:32.756Z,18.71
2023-04-17T14:31:35.673Z,19.05
2023-04-17T14:36:38.613Z,18.95
2023-04-17T14:41:41.430Z,19.41
2023-04-17T14:46:44.581Z,19.56
2023-04-17T14:51:47.769Z,19.77
2023-04-17T14:56:50.834Z,19.88
2023-04-17T15:01:54.122Z,20.11
2023-04-17T15:06:57.153Z,20.58
2023-04-17T15:12:01.836Z,20.64
2023-04-17T15:17:07.069Z,20.93
2023-04-17T15:22:10.299Z,21.44
2023-04-17T15:27:13.340Z,21.47
2023-04-17T15:32:16.406Z,21.84
2023-04-17T15:37:19.423Z,22.15
2023-04-17T15:42:22.944Z,22.54
2023-04-17T15:47:25.954Z,22.79
2023-04-17T15:52:29.149Z,23.03
2023-04-17T15:57:32.021Z,23.39
2023-04-17T16:02:35.081Z,23.75
2023-04-17T16:07:38.024Z,24.10
2023-04-17T16:12:45.000Z,24.38
2023-04-17T16:17:49.102Z,24.47
2023-04-17T16:22:51.994Z,24.69
2023-04-17T16:27:54.829Z,24.93
2023-04-17T16:32:57.930Z,25.15
2023-04-17T16:38:03.402Z,25.41
2023-04-17T16:43:06.427Z,25.29
2023-04-17T16:48:11.322Z,25.70
2023-04-17T16:53:14.740Z,25.87
2023-04-17T16:58:17.443Z,25.97
2023-04-17T17:03:20.266Z,26.02
2023-04-17T17:08:23.672Z,26.44
2023-04-17T17:13:26.441Z,26.46
2023-04-17T17:18:29.320Z,26.93
2023-04-17T17:23:32.433Z,27.23
2023-04-17T17:28:55.554Z,28.02
2023-04-17T17:34:11.767Z,28.21
2023-04-17T17:39:25.239Z,28.11
2023-04-17T17:44:28.174Z,28.95
2023-04-17T17:49:31.163Z,28.75
2023-04-17T17:54:38.052Z,29.11
2023-04-17T17:59:41.176Z,29.13
2023-04-17T18:04:44.284Z,29.36
2023-04-17T18:09:49.480Z,29.71
2023-04-17T18:14:53.757Z,30.17
2023-04-17T18:19:56.692Z,30.61
2023-04-17T18:24:59.646Z,31.10
2023-04-17T18:30:05.114Z,31.69
2023-04-17T18:35:08.839Z,31.92
2023-04-17T18:40:14.621Z,32.09
2023-04-17T18:45:17.993Z,32.26
2023-04-17T18:50:21.653Z,32.54
2023-04-17T18:55:27.300Z,32.55
2023-04-17T19:00:30.241Z,32.58
2023-04-17T19:05:33.369Z,32.78
2023-04-17T19:10:39.928Z,32.79
2023-04-17T19:15:43.310Z,32.74
2023-04-17T19:20:46.690Z,32.97
2023-04-17T19:25:55.897Z,33.02
2023-04-17T19:31:03.734Z,32.89
2023-04-17T19:36:10.659Z,32.97
2023-04-17T19:41:18.816Z,32.81
2023-04-17T19:46:25.708Z,32.95
2023-04-17T19:51:28.793Z,32.93
2023-04-17T19:56:36.912Z,33.06
2023-04-17T20:01:41.495Z,33.30
2023-04-17T20:07:04.799Z,33.26
2023-04-17T20:12:08.102Z,33.40
2023-04-17T20:17:11.356Z,33.52
2023-04-17T20:22:14.470Z,33.89
2023-04-17T20:27:18.195Z,33.96
2023-04-17T20:32:20.885Z,34.21
2023-04-17T20:37:24.005Z,34.49
2023-04-17T20:42:26.899Z,34.58
2023-04-17T20:47:29.835Z,34.75
2023-04-17T20:52:33.379Z,34.75
2023-04-17T20:57:36.727Z,34.72
2023-04-17T21:02:41.549Z,34.59
2023-04-17T21:07:44.692Z,34.71
2023-04-17T21:12:47.672Z,34.82
2023-04-17T21:17:50.674Z,34.75
2023-04-17T21:22:53.605Z,34.76
2023-04-17T21:27:56.615Z,34.74
2023-04-17T21:32:59.647Z,34.53
2023-04-17T21:38:02.799Z,34.53
2023-04-17T21:43:05.839Z,34.55
2023-04-17T21:48:08.638Z,34.51
2023-04-17T21:53:11.844Z,34.65
2023-04-17T21:58:15.156Z,34.81
2023-04-17T22:03:18.520Z,34.86
2023-04-17T22:08:21.444Z,35.04
2023-04-17T22:13:24.394Z,35.18
2023-04-17T22:18:27.945Z,35.30
2023-04-17T22:23:30.920Z,35.44
2023-04-17T22:28:33.778Z,35.61
2023-04-17T22:33:36.641Z,36.13
2023-04-17T22:38:39.488Z,35.99
2023-04-17T22:43:42.438Z,36.10
2023-04-17T22:48:45.308Z,36.29
2023-04-17T22:53:48.445Z,36.34
2023-04-17T22:58:51.709Z,36.40
2023-04-17T23:03:54.703Z,36.28
2023-04-17T23:08:58.521Z,36.52
2023-04-17T23:14:02.193Z,36.52
2023-04-17T23:19:05.158Z,36.52
2023-04-17T23:24:08.373Z,37.00
2023-04-17T23:29:11.299Z,37.17
2023-04-17T23:34:14.324Z,37.16
2023-04-17T23:39:17.339Z,37.28
2023-04-17T23:44:20.371Z,37.57
2023-04-17T23:49:23.260Z,37.62
2023-04-17T23:54:26.110Z,37.74
2023-04-17T23:59:29.227Z,37.79
